sensor_id;sensor_type;location;lat;lon;timestamp;P1;durP1;ratioP1;P2;durP2;ratioP2
12171;SDS011;6149;52.418;13.668;2022-09-12T00:01:03;7.73;;;6.93;;
12171;SDS011;6149;52.418;13.668;2022-09-12T00:03:31;8.47;;;7.60;;
12171;SDS011;6149;52.418;13.668;2022-09-12T00:05:58;7.53;;;6.83;;
12171;SDS011;6149;52.418;13.668;2022-09-12T00:08:24;8.43;;;7.57;;
12171;SDS011;6149;52.418;13.668;2022-09-12T00:10:52;8.80;;;7.87;;
12171;SDS011;6149;52.418;13.668;2022-09-12T00:13:19;9.27;;;6.67;;
12171;SDS011;6149;52.418;13.668;2022-09-12T00:15:45;7.50;;;6.80;;
12171;SDS011;6149;52.418;13.668;2022-09-12T00:18:13;7.93;;;7.07;;
12171;SDS011;6149;52.418;13.668;2022-09-12T00:20:41;9.47;;;7.53;;
12171;SDS011;6149;52.418;13.668;2022-09-12T00:23:09;8.07;;;7.00;;
12171;SDS011;6149;52.418;13.668;2022-09-12T00:25:39;7.67;;;6.97;;
12171;SDS011;6149;52.418;13.668;2022-09-12T00:28:08;7.20;;;6.50;;
12171;SDS011;6149;52.418;13.668;2022-09-12T00:30:38;8.40;;;7.60;;
12171;SDS011;6149;52.418;13.668;2022-09-12T00:33:06;8.17;;;7.03;;
12171;SDS011;6149;52.418;13.668;2022-09-12T00:35:39;6.80;;;6.20;;
12171;SDS011;6149;52.418;13.668;2022-09-12T00:38:07;8.37;;;7.47;;
12171;SDS011;6149;52.418;13.668;2022-09-12T00:40:33;8.97;;;7.60;;
12171;SDS011;6149;52.418;13.668;2022-09-12T00:43:00;7.47;;;6.67;;
12171;SDS011;6149;52.418;13.668;2022-09-12T00:45:28;8.30;;;7.50;;
12171;SDS011;6149;52.418;13.668;2022-09-12T00:47:56;7.23;;;6.37;;
12171;SDS011;6149;52.418;13.668;2022-09-12T00:50:27;9.20;;;7.67;;
12171;SDS011;6149;52.418;13.668;2022-09-12T00:52:56;8.47;;;7.60;;
12171;SDS011;6149;52.418;13.668;2022-09-12T00:55:26;6.90;;;6.20;;
12171;SDS011;6149;52.418;13.668;2022-09-12T00:57:59;7.33;;;6.30;;
12171;SDS011;6149;52.418;13.668;2022-09-12T01:00:31;7.97;;;7.17;;
12171;SDS011;6149;52.418;13.668;2022-09-12T01:02:59;7.07;;;6.37;;
12171;SDS011;6149;52.418;13.668;2022-09-12T01:05:30;8.23;;;7.43;;
12171;SDS011;6149;52.418;13.668;2022-09-12T01:08:03;7.10;;;6.50;;
12171;SDS011;6149;52.418;13.668;2022-09-12T01:10:30;7.90;;;7.10;;
12171;SDS011;6149;52.418;13.668;2022-09-12T01:13:02;7.60;;;6.87;;
12171;SDS011;6149;52.418;13.668;2022-09-12T01:15:34;8.73;;;7.20;;
12171;SDS011;6149;52.418;13.668;2022-09-12T01:18:07;7.40;;;6.70;;
12171;SDS011;6149;52.418;13.668;2022-09-12T01:20:45;7.67;;;6.60;;
12171;SDS011;6149;52.418;13.668;2022-09-12T01:26:56;8.43;;;7.63;;
12171;SDS011;6149;52.418;13.668;2022-09-12T01:29:51;7.63;;;6.90;;
12171;SDS011;6149;52.418;13.668;2022-09-12T01:32:35;7.50;;;6.80;;
12171;SDS011;6149;52.418;13.668;2022-09-12T01:35:16;7.87;;;7.00;;
12171;SDS011;6149;52.418;13.668;2022-09-12T01:37:51;7.73;;;6.93;;
12171;SDS011;6149;52.418;13.668;2022-09-12T01:40:32;7.63;;;6.93;;
12171;SDS011;6149;52.418;13.668;2022-09-12T01:43:13;9.27;;;8.23;;
12171;SDS011;6149;52.418;13.668;2022-09-12T01:45:51;8.23;;;7.43;;
12171;SDS011;6149;52.418;13.668;2022-09-12T01:48:25;6.77;;;6.17;;
12171;SDS011;6149;52.418;13.668;2022-09-12T01:50:57;7.17;;;6.20;;
12171;SDS011;6149;52.418;13.668;2022-09-12T01:53:32;7.30;;;6.60;;
12171;SDS011;6149;52.418;13.668;2022-09-12T01:56:07;7.33;;;6.30;;
12171;SDS011;6149;52.418;13.668;2022-09-12T01:58:40;7.53;;;6.73;;
12171;SDS011;6149;52.418;13.668;2022-09-12T02:01:11;6.57;;;5.97;;
12171;SDS011;6149;52.418;13.668;2022-09-12T02:03:45;7.27;;;6.63;;
12171;SDS011;6149;52.418;13.668;2022-09-12T02:06:17;7.87;;;7.17;;
12171;SDS011;6149;52.418;13.668;2022-09-12T02:08:48;8.60;;;6.93;;
12171;SDS011;6149;52.418;13.668;2022-09-12T02:11:19;7.80;;;6.90;;
12171;SDS011;6149;52.418;13.668;2022-09-12T02:13:48;8.47;;;7.13;;
12171;SDS011;6149;52.418;13.668;2022-09-12T02:16:22;7.03;;;6.20;;
12171;SDS011;6149;52.418;13.668;2022-09-12T02:18:58;7.47;;;6.77;;
12171;SDS011;6149;52.418;13.668;2022-09-12T02:21:33;6.70;;;6.00;;
12171;SDS011;6149;52.418;13.668;2022-09-12T02:24:05;8.13;;;6.63;;
12171;SDS011;6149;52.418;13.668;2022-09-12T02:26:36;7.20;;;6.37;;
12171;SDS011;6149;52.418;13.668;2022-09-12T02:29:11;6.60;;;6.00;;
12171;SDS011;6149;52.418;13.668;2022-09-12T02:31:39;7.63;;;6.73;;
12171;SDS011;6149;52.418;13.668;2022-09-12T02:34:15;7.63;;;6.60;;
12171;SDS011;6149;52.418;13.668;2022-09-12T02:36:57;6.00;;;5.50;;
12171;SDS011;6149;52.418;13.668;2022-09-12T02:39:32;7.77;;;6.00;;
12171;SDS011;6149;52.418;13.668;2022-09-12T02:41:59;6.07;;;5.57;;
12171;SDS011;6149;52.418;13.668;2022-09-12T02:44:28;7.33;;;6.07;;
12171;SDS011;6149;52.418;13.668;2022-09-12T02:46:57;6.63;;;6.03;;
12171;SDS011;6149;52.418;13.668;2022-09-12T02:49:29;7.50;;;6.50;;
12171;SDS011;6149;52.418;13.668;2022-09-12T02:51:55;6.70;;;6.00;;
12171;SDS011;6149;52.418;13.668;2022-09-12T02:54:22;5.90;;;5.30;;
12171;SDS011;6149;52.418;13.668;2022-09-12T02:56:50;6.50;;;5.90;;
12171;SDS011;6149;52.418;13.668;2022-09-12T02:59:17;6.80;;;6.10;;
12171;SDS011;6149;52.418;13.668;2022-09-12T03:01:49;6.87;;;6.17;;
12171;SDS011;6149;52.418;13.668;2022-09-12T03:04:46;7.03;;;6.03;;
12171;SDS011;6149;52.418;13.668;2022-09-12T03:07:39;6.23;;;5.63;;
12171;SDS011;6149;52.418;13.668;2022-09-12T03:10:28;7.83;;;6.63;;
12171;SDS011;6149;52.418;13.668;2022-09-12T03:13:07;7.63;;;6.37;;
12171;SDS011;6149;52.418;13.668;2022-09-12T03:15:48;8.40;;;6.20;;
12171;SDS011;6149;52.418;13.668;2022-09-12T03:18:32;7.53;;;6.20;;
12171;SDS011;6149;52.418;13.668;2022-09-12T03:21:17;8.30;;;6.33;;
12171;SDS011;6149;52.418;13.668;2022-09-12T03:23:53;6.83;;;6.13;;
12171;SDS011;6149;52.418;13.668;2022-09-12T03:26:38;7.47;;;6.70;;
12171;SDS011;6149;52.418;13.668;2022-09-12T03:29:09;8.27;;;7.47;;
12171;SDS011;6149;52.418;13.668;2022-09-12T03:31:46;9.27;;;6.87;;
12171;SDS011;6149;52.418;13.668;2022-09-12T03:34:15;7.70;;;6.77;;
12171;SDS011;6149;52.418;13.668;2022-09-12T03:36:43;8.17;;;7.30;;
12171;SDS011;6149;52.418;13.668;2022-09-12T03:39:10;8.50;;;7.33;;
12171;SDS011;6149;52.418;13.668;2022-09-12T03:41:37;6.80;;;6.10;;
12171;SDS011;6149;52.418;13.668;2022-09-12T03:44:03;6.50;;;5.90;;
12171;SDS011;6149;52.418;13.668;2022-09-12T03:46:30;6.70;;;6.03;;
12171;SDS011;6149;52.418;13.668;2022-09-12T03:48:57;6.90;;;6.20;;
12171;SDS011;6149;52.418;13.668;2022-09-12T03:51:23;8.43;;;7.13;;
12171;SDS011;6149;52.418;13.668;2022-09-12T03:53:51;6.83;;;6.23;;
12171;SDS011;6149;52.418;13.668;2022-09-12T03:56:18;8.13;;;7.33;;
12171;SDS011;6149;52.418;13.668;2022-09-12T03:58:44;7.23;;;6.40;;
12171;SDS011;6149;52.418;13.668;2022-09-12T04:01:13;8.97;;;8.07;;
12171;SDS011;6149;52.418;13.668;2022-09-12T04:03:43;6.97;;;6.27;;
12171;SDS011;6149;52.418;13.668;2022-09-12T04:06:12;7.27;;;6.57;;
12171;SDS011;6149;52.418;13.668;2022-09-12T04:08:41;7.43;;;6.63;;
12171;SDS011;6149;52.418;13.668;2022-09-12T04:11:10;7.60;;;6.60;;
12171;SDS011;6149;52.418;13.668;2022-09-12T04:13:41;8.03;;;6.60;;
12171;SDS011;6149;52.418;13.668;2022-09-12T04:16:10;6.90;;;6.30;;
12171;SDS011;6149;52.418;13.668;2022-09-12T04:18:37;5.70;;;5.20;;
12171;SDS011;6149;52.418;13.668;2022-09-12T04:21:04;6.00;;;5.40;;
12171;SDS011;6149;52.418;13.668;2022-09-12T04:23:33;6.73;;;6.13;;
12171;SDS011;6149;52.418;13.668;2022-09-12T04:26:01;5.73;;;5.20;;
12171;SDS011;6149;52.418;13.668;2022-09-12T04:28:31;7.50;;;6.37;;
12171;SDS011;6149;52.418;13.668;2022-09-12T04:31:00;6.30;;;5.70;;
12171;SDS011;6149;52.418;13.668;2022-09-12T04:33:29;6.97;;;5.60;;
12171;SDS011;6149;52.418;13.668;2022-09-12T04:35:55;7.87;;;5.80;;
12171;SDS011;6149;52.418;13.668;2022-09-12T04:38:22;7.67;;;5.73;;
12171;SDS011;6149;52.418;13.668;2022-09-12T04:40:49;6.77;;;6.17;;
12171;SDS011;6149;52.418;13.668;2022-09-12T04:43:15;6.57;;;5.80;;
12171;SDS011;6149;52.418;13.668;2022-09-12T04:45:43;7.10;;;6.20;;
12171;SDS011;6149;52.418;13.668;2022-09-12T04:48:10;6.63;;;5.73;;
12171;SDS011;6149;52.418;13.668;2022-09-12T04:50:36;7.90;;;5.87;;
12171;SDS011;6149;52.418;13.668;2022-09-12T04:53:03;6.83;;;6.13;;
12171;SDS011;6149;52.418;13.668;2022-09-12T04:55:29;5.90;;;5.30;;
12171;SDS011;6149;52.418;13.668;2022-09-12T04:57:56;6.57;;;5.90;;
12171;SDS011;6149;52.418;13.668;2022-09-12T05:00:22;5.30;;;4.80;;
12171;SDS011;6149;52.418;13.668;2022-09-12T05:02:50;6.17;;;4.97;;
12171;SDS011;6149;52.418;13.668;2022-09-12T05:05:17;5.40;;;4.77;;
12171;SDS011;6149;52.418;13.668;2022-09-12T05:07:43;6.90;;;5.40;;
12171;SDS011;6149;52.418;13.668;2022-09-12T05:10:10;7.33;;;5.20;;
12171;SDS011;6149;52.418;13.668;2022-09-12T05:12:37;6.27;;;5.67;;
12171;SDS011;6149;52.418;13.668;2022-09-12T05:15:04;6.90;;;4.90;;
12171;SDS011;6149;52.418;13.668;2022-09-12T05:17:32;7.10;;;6.00;;
12171;SDS011;6149;52.418;13.668;2022-09-12T05:20:00;6.77;;;5.50;;
12171;SDS011;6149;52.418;13.668;2022-09-12T05:22:27;6.60;;;5.70;;
12171;SDS011;6149;52.418;13.668;2022-09-12T05:24:53;5.57;;;5.07;;
12171;SDS011;6149;52.418;13.668;2022-09-12T05:27:20;6.33;;;5.73;;
12171;SDS011;6149;52.418;13.668;2022-09-12T05:29:46;6.00;;;5.40;;
12171;SDS011;6149;52.418;13.668;2022-09-12T05:32:13;6.60;;;5.90;;
12171;SDS011;6149;52.418;13.668;2022-09-12T05:34:39;7.60;;;6.43;;
12171;SDS011;6149;52.418;13.668;2022-09-12T05:37:07;6.60;;;6.00;;
12171;SDS011;6149;52.418;13.668;2022-09-12T05:39:34;6.90;;;6.20;;
12171;SDS011;6149;52.418;13.668;2022-09-12T05:42:00;6.70;;;6.10;;
12171;SDS011;6149;52.418;13.668;2022-09-12T05:44:27;6.83;;;6.23;;
12171;SDS011;6149;52.418;13.668;2022-09-12T05:46:54;7.10;;;6.40;;
12171;SDS011;6149;52.418;13.668;2022-09-12T05:49:21;7.10;;;6.03;;
12171;SDS011;6149;52.418;13.668;2022-09-12T05:51:48;7.33;;;5.80;;
12171;SDS011;6149;52.418;13.668;2022-09-12T05:54:17;6.63;;;5.90;;
12171;SDS011;6149;52.418;13.668;2022-09-12T05:56:45;7.07;;;6.30;;
12171;SDS011;6149;52.418;13.668;2022-09-12T05:59:13;8.70;;;7.90;;
12171;SDS011;6149;52.418;13.668;2022-09-12T06:01:42;7.53;;;6.37;;
12171;SDS011;6149;52.418;13.668;2022-09-12T06:04:10;7.43;;;5.67;;
12171;SDS011;6149;52.418;13.668;2022-09-12T06:06:37;6.03;;;5.50;;
12171;SDS011;6149;52.418;13.668;2022-09-12T06:09:07;8.57;;;7.13;;
12171;SDS011;6149;52.418;13.668;2022-09-12T06:11:53;9.07;;;7.13;;
12171;SDS011;6149;52.418;13.668;2022-09-12T06:14:20;8.07;;;7.27;;
12171;SDS011;6149;52.418;13.668;2022-09-12T06:16:46;9.43;;;8.17;;
12171;SDS011;6149;52.418;13.668;2022-09-12T06:19:14;16.33;;;10.60;;
12171;SDS011;6149;52.418;13.668;2022-09-12T06:21:43;13.33;;;11.60;;
12171;SDS011;6149;52.418;13.668;2022-09-12T06:24:10;14.13;;;11.20;;
12171;SDS011;6149;52.418;13.668;2022-09-12T06:26:38;13.70;;;11.37;;
12171;SDS011;6149;52.418;13.668;2022-09-12T06:29:04;14.53;;;12.43;;
12171;SDS011;6149;52.418;13.668;2022-09-12T06:31:33;12.53;;;11.23;;
12171;SDS011;6149;52.418;13.668;2022-09-12T06:34:02;13.37;;;10.33;;
12171;SDS011;6149;52.418;13.668;2022-09-12T06:36:31;13.07;;;9.77;;
12171;SDS011;6149;52.418;13.668;2022-09-12T06:39:02;13.03;;;11.03;;
12171;SDS011;6149;52.418;13.668;2022-09-12T06:41:31;13.57;;;10.77;;
12171;SDS011;6149;52.418;13.668;2022-09-12T06:44:00;13.00;;;11.03;;
12171;SDS011;6149;52.418;13.668;2022-09-12T06:46:27;10.47;;;9.37;;
12171;SDS011;6149;52.418;13.668;2022-09-12T06:48:55;11.73;;;10.53;;
12171;SDS011;6149;52.418;13.668;2022-09-12T06:51:23;13.10;;;11.47;;
12171;SDS011;6149;52.418;13.668;2022-09-12T06:53:50;14.83;;;11.67;;
12171;SDS011;6149;52.418;13.668;2022-09-12T06:56:18;14.60;;;11.23;;
12171;SDS011;6149;52.418;13.668;2022-09-12T06:58:46;11.63;;;10.43;;
12171;SDS011;6149;52.418;13.668;2022-09-12T07:01:16;13.80;;;11.63;;
12171;SDS011;6149;52.418;13.668;2022-09-12T07:03:46;15.40;;;11.57;;
12171;SDS011;6149;52.418;13.668;2022-09-12T07:06:14;13.93;;;12.53;;
12171;SDS011;6149;52.418;13.668;2022-09-12T07:08:43;14.77;;;12.10;;
12171;SDS011;6149;52.418;13.668;2022-09-12T07:11:12;15.20;;;11.73;;
12171;SDS011;6149;52.418;13.668;2022-09-12T07:13:40;16.37;;;12.47;;
12171;SDS011;6149;52.418;13.668;2022-09-12T07:16:09;12.73;;;11.43;;
12171;SDS011;6149;52.418;13.668;2022-09-12T07:18:38;13.07;;;11.63;;
12171;SDS011;6149;52.418;13.668;2022-09-12T07:21:06;13.37;;;11.97;;
12171;SDS011;6149;52.418;13.668;2022-09-12T07:23:36;13.20;;;11.50;;
12171;SDS011;6149;52.418;13.668;2022-09-12T07:26:04;13.07;;;10.17;;
12171;SDS011;6149;52.418;13.668;2022-09-12T07:28:32;13.27;;;11.70;;
12171;SDS011;6149;52.418;13.668;2022-09-12T07:31:03;13.17;;;11.63;;
12171;SDS011;6149;52.418;13.668;2022-09-12T07:33:31;12.10;;;10.43;;
12171;SDS011;6149;52.418;13.668;2022-09-12T07:36:01;13.30;;;11.93;;
12171;SDS011;6149;52.418;13.668;2022-09-12T07:38:28;14.17;;;12.77;;
12171;SDS011;6149;52.418;13.668;2022-09-12T07:40:55;14.33;;;12.00;;
12171;SDS011;6149;52.418;13.668;2022-09-12T07:43:22;9.70;;;8.80;;
12171;SDS011;6149;52.418;13.668;2022-09-12T07:45:53;14.20;;;11.27;;
12171;SDS011;6149;52.418;13.668;2022-09-12T07:48:20;11.73;;;10.53;;
12171;SDS011;6149;52.418;13.668;2022-09-12T07:50:47;12.27;;;11.07;;
12171;SDS011;6149;52.418;13.668;2022-09-12T07:53:24;11.77;;;10.57;;
12171;SDS011;6149;52.418;13.668;2022-09-12T07:55:54;12.57;;;11.27;;
12171;SDS011;6149;52.418;13.668;2022-09-12T07:58:20;11.53;;;10.33;;
12171;SDS011;6149;52.418;13.668;2022-09-12T08:00:47;9.50;;;8.50;;
12171;SDS011;6149;52.418;13.668;2022-09-12T08:03:14;10.43;;;9.40;;
12171;SDS011;6149;52.418;13.668;2022-09-12T08:05:40;15.27;;;11.53;;
12171;SDS011;6149;52.418;13.668;2022-09-12T08:08:07;10.17;;;9.03;;
12171;SDS011;6149;52.418;13.668;2022-09-12T08:10:35;9.33;;;8.43;;
12171;SDS011;6149;52.418;13.668;2022-09-12T08:13:02;8.83;;;7.40;;
12171;SDS011;6149;52.418;13.668;2022-09-12T08:15:29;10.03;;;7.20;;
12171;SDS011;6149;52.418;13.668;2022-09-12T08:17:56;8.43;;;7.53;;
12171;SDS011;6149;52.418;13.668;2022-09-12T08:20:23;8.57;;;6.90;;
12171;SDS011;6149;52.418;13.668;2022-09-12T08:22:50;7.77;;;7.03;;
12171;SDS011;6149;52.418;13.668;2022-09-12T08:25:16;8.37;;;6.97;;
12171;SDS011;6149;52.418;13.668;2022-09-12T08:27:44;8.07;;;6.73;;
12171;SDS011;6149;52.418;13.668;2022-09-12T08:30:12;6.40;;;5.80;;
12171;SDS011;6149;52.418;13.668;2022-09-12T08:32:39;12.10;;;9.50;;
12171;SDS011;6149;52.418;13.668;2022-09-12T08:35:05;6.73;;;5.20;;
12171;SDS011;6149;52.418;13.668;2022-09-12T08:37:33;4.70;;;4.30;;
12171;SDS011;6149;52.418;13.668;2022-09-12T08:40:00;4.10;;;3.70;;
12171;SDS011;6149;52.418;13.668;2022-09-12T08:42:32;4.00;;;3.60;;
12171;SDS011;6149;52.418;13.668;2022-09-12T08:45:16;5.13;;;4.47;;
12171;SDS011;6149;52.418;13.668;2022-09-12T08:47:48;3.90;;;3.60;;
12171;SDS011;6149;52.418;13.668;2022-09-12T08:50:17;4.30;;;3.23;;
12171;SDS011;6149;52.418;13.668;2022-09-12T08:52:48;4.80;;;3.60;;
12171;SDS011;6149;52.418;13.668;2022-09-12T08:55:24;4.27;;;3.50;;
12171;SDS011;6149;52.418;13.668;2022-09-12T08:57:57;4.30;;;2.73;;
12171;SDS011;6149;52.418;13.668;2022-09-12T09:00:26;3.87;;;3.23;;
12171;SDS011;6149;52.418;13.668;2022-09-12T09:06:14;4.23;;;2.90;;
12171;SDS011;6149;52.418;13.668;2022-09-12T09:08:54;3.23;;;2.70;;
12171;SDS011;6149;52.418;13.668;2022-09-12T09:11:34;3.70;;;2.40;;
12171;SDS011;6149;52.418;13.668;2022-09-12T09:14:29;3.00;;;2.30;;
12171;SDS011;6149;52.418;13.668;2022-09-12T09:17:17;5.00;;;2.20;;
12171;SDS011;6149;52.418;13.668;2022-09-12T09:19:50;3.20;;;2.30;;
12171;SDS011;6149;52.418;13.668;2022-09-12T09:22:31;2.77;;;2.30;;
12171;SDS011;6149;52.418;13.668;2022-09-12T09:25:06;3.70;;;2.30;;
12171;SDS011;6149;52.418;13.668;2022-09-12T09:27:40;3.07;;;2.50;;
12171;SDS011;6149;52.418;13.668;2022-09-12T09:30:17;3.17;;;2.10;;
12171;SDS011;6149;52.418;13.668;2022-09-12T09:32:46;5.83;;;2.27;;
12171;SDS011;6149;52.418;13.668;2022-09-12T09:35:17;1.83;;;1.70;;
12171;SDS011;6149;52.418;13.668;2022-09-12T09:37:58;3.63;;;2.13;;
12171;SDS011;6149;52.418;13.668;2022-09-12T09:40:30;2.40;;;2.03;;
12171;SDS011;6149;52.418;13.668;2022-09-12T09:43:12;2.87;;;2.10;;
12171;SDS011;6149;52.418;13.668;2022-09-12T09:45:48;3.47;;;2.50;;
12171;SDS011;6149;52.418;13.668;2022-09-12T09:48:16;3.70;;;2.30;;
12171;SDS011;6149;52.418;13.668;2022-09-12T09:50:44;2.60;;;2.10;;
12171;SDS011;6149;52.418;13.668;2022-09-12T09:53:19;3.93;;;2.83;;
12171;SDS011;6149;52.418;13.668;2022-09-12T09:55:54;3.00;;;2.27;;
12171;SDS011;6149;52.418;13.668;2022-09-12T09:58:31;3.10;;;2.10;;
12171;SDS011;6149;52.418;13.668;2022-09-12T10:01:01;2.20;;;1.80;;
12171;SDS011;6149;52.418;13.668;2022-09-12T10:03:30;1.97;;;1.70;;
12171;SDS011;6149;52.418;13.668;2022-09-12T10:06:00;2.20;;;2.00;;
12171;SDS011;6149;52.418;13.668;2022-09-12T10:08:32;2.37;;;1.77;;
12171;SDS011;6149;52.418;13.668;2022-09-12T10:11:02;2.23;;;1.60;;
12171;SDS011;6149;52.418;13.668;2022-09-12T10:13:34;3.70;;;1.57;;
12171;SDS011;6149;52.418;13.668;2022-09-12T10:16:06;2.67;;;1.47;;
12171;SDS011;6149;52.418;13.668;2022-09-12T10:18:46;2.27;;;1.63;;
12171;SDS011;6149;52.418;13.668;2022-09-12T10:21:23;2.10;;;1.73;;
12171;SDS011;6149;52.418;13.668;2022-09-12T10:23:58;1.77;;;1.67;;
12171;SDS011;6149;52.418;13.668;2022-09-12T10:26:36;1.50;;;1.40;;
12171;SDS011;6149;52.418;13.668;2022-09-12T10:29:12;2.50;;;1.63;;
12171;SDS011;6149;52.418;13.668;2022-09-12T10:31:45;1.83;;;1.30;;
12171;SDS011;6149;52.418;13.668;2022-09-12T10:37:02;1.60;;;1.30;;
12171;SDS011;6149;52.418;13.668;2022-09-12T10:39:32;2.03;;;1.30;;
12171;SDS011;6149;52.418;13.668;2022-09-12T10:42:01;2.93;;;1.40;;
12171;SDS011;6149;52.418;13.668;2022-09-12T10:44:29;2.73;;;1.63;;
12171;SDS011;6149;52.418;13.668;2022-09-12T10:47:17;1.37;;;1.27;;
12171;SDS011;6149;52.418;13.668;2022-09-12T10:49:46;1.80;;;1.40;;
12171;SDS011;6149;52.418;13.668;2022-09-12T10:52:15;4.23;;;3.50;;
12171;SDS011;6149;52.418;13.668;2022-09-12T10:54:45;2.90;;;2.20;;
12171;SDS011;6149;52.418;13.668;2022-09-12T10:57:20;2.00;;;1.20;;
12171;SDS011;6149;52.418;13.668;2022-09-12T11:00:11;3.13;;;2.50;;
12171;SDS011;6149;52.418;13.668;2022-09-12T11:02:55;1.97;;;1.60;;
12171;SDS011;6149;52.418;13.668;2022-09-12T11:05:37;2.07;;;1.60;;
12171;SDS011;6149;52.418;13.668;2022-09-12T11:11:13;1.97;;;1.10;;
12171;SDS011;6149;52.418;13.668;2022-09-12T11:14:03;2.73;;;1.50;;
12171;SDS011;6149;52.418;13.668;2022-09-12T11:16:44;2.00;;;1.30;;
12171;SDS011;6149;52.418;13.668;2022-09-12T11:19:31;1.33;;;1.17;;
12171;SDS011;6149;52.418;13.668;2022-09-12T11:22:20;2.33;;;1.47;;
12171;SDS011;6149;52.418;13.668;2022-09-12T11:25:09;3.03;;;1.30;;
12171;SDS011;6149;52.418;13.668;2022-09-12T11:27:47;2.23;;;1.60;;
12171;SDS011;6149;52.418;13.668;2022-09-12T11:30:28;2.30;;;1.40;;
12171;SDS011;6149;52.418;13.668;2022-09-12T11:33:05;2.20;;;1.30;;
12171;SDS011;6149;52.418;13.668;2022-09-12T11:35:50;2.40;;;1.20;;
12171;SDS011;6149;52.418;13.668;2022-09-12T11:41:18;1.50;;;0.87;;
12171;SDS011;6149;52.418;13.668;2022-09-12T11:43:52;1.00;;;0.90;;
12171;SDS011;6149;52.418;13.668;2022-09-12T11:46:28;1.00;;;0.87;;
12171;SDS011;6149;52.418;13.668;2022-09-12T11:49:03;2.07;;;1.20;;
12171;SDS011;6149;52.418;13.668;2022-09-12T11:51:41;4.10;;;1.13;;
12171;SDS011;6149;52.418;13.668;2022-09-12T11:54:18;1.10;;;1.00;;
12171;SDS011;6149;52.418;13.668;2022-09-12T11:56:52;1.23;;;1.10;;
12171;SDS011;6149;52.418;13.668;2022-09-12T11:59:28;1.67;;;1.17;;
12171;SDS011;6149;52.418;13.668;2022-09-12T12:02:02;2.37;;;1.27;;
12171;SDS011;6149;52.418;13.668;2022-09-12T12:04:40;1.73;;;1.30;;
12171;SDS011;6149;52.418;13.668;2022-09-12T12:07:22;1.60;;;1.17;;
12171;SDS011;6149;52.418;13.668;2022-09-12T12:09:49;0.90;;;0.90;;
12171;SDS011;6149;52.418;13.668;2022-09-12T12:12:18;1.33;;;1.10;;
12171;SDS011;6149;52.418;13.668;2022-09-12T12:14:49;2.03;;;1.30;;
12171;SDS011;6149;52.418;13.668;2022-09-12T12:17:19;4.53;;;1.30;;
12171;SDS011;6149;52.418;13.668;2022-09-12T12:19:55;2.63;;;1.30;;
12171;SDS011;6149;52.418;13.668;2022-09-12T12:22:25;2.53;;;1.57;;
12171;SDS011;6149;52.418;13.668;2022-09-12T12:24:58;1.73;;;1.33;;
12171;SDS011;6149;52.418;13.668;2022-09-12T12:27:48;1.23;;;1.10;;
12171;SDS011;6149;52.418;13.668;2022-09-12T12:36:53;1.63;;;1.30;;
12171;SDS011;6149;52.418;13.668;2022-09-12T12:48:43;1.47;;;1.20;;
12171;SDS011;6149;52.418;13.668;2022-09-12T12:51:21;1.63;;;1.30;;
12171;SDS011;6149;52.418;13.668;2022-09-12T12:53:59;1.83;;;1.23;;
12171;SDS011;6149;52.418;13.668;2022-09-12T12:56:36;2.70;;;1.40;;
12171;SDS011;6149;52.418;13.668;2022-09-12T12:59:11;3.57;;;1.40;;
12171;SDS011;6149;52.418;13.668;2022-09-12T13:01:46;1.83;;;1.20;;
12171;SDS011;6149;52.418;13.668;2022-09-12T13:04:16;1.57;;;1.30;;
12171;SDS011;6149;52.418;13.668;2022-09-12T13:06:45;1.40;;;1.30;;
12171;SDS011;6149;52.418;13.668;2022-09-12T13:09:24;2.17;;;1.37;;
12171;SDS011;6149;52.418;13.668;2022-09-12T13:12:00;1.87;;;1.30;;
12171;SDS011;6149;52.418;13.668;2022-09-12T13:14:36;2.23;;;1.10;;
12171;SDS011;6149;52.418;13.668;2022-09-12T13:17:17;2.37;;;1.37;;
12171;SDS011;6149;52.418;13.668;2022-09-12T13:19:50;2.60;;;1.37;;
12171;SDS011;6149;52.418;13.668;2022-09-12T13:22:24;2.50;;;1.40;;
12171;SDS011;6149;52.418;13.668;2022-09-12T13:24:50;1.80;;;1.33;;
12171;SDS011;6149;52.418;13.668;2022-09-12T13:27:19;1.73;;;1.30;;
12171;SDS011;6149;52.418;13.668;2022-09-12T13:29:48;1.50;;;1.40;;
12171;SDS011;6149;52.418;13.668;2022-09-12T13:32:15;2.00;;;1.30;;
12171;SDS011;6149;52.418;13.668;2022-09-12T13:34:49;2.50;;;1.30;;
12171;SDS011;6149;52.418;13.668;2022-09-12T13:37:42;1.97;;;1.47;;
12171;SDS011;6149;52.418;13.668;2022-09-12T13:40:17;2.07;;;1.30;;
12171;SDS011;6149;52.418;13.668;2022-09-12T13:43:06;3.03;;;1.33;;
12171;SDS011;6149;52.418;13.668;2022-09-12T13:45:39;4.47;;;1.30;;
12171;SDS011;6149;52.418;13.668;2022-09-12T13:48:09;1.90;;;1.40;;
12171;SDS011;6149;52.418;13.668;2022-09-12T13:50:48;2.83;;;1.10;;
12171;SDS011;6149;52.418;13.668;2022-09-12T13:53:19;3.20;;;1.30;;
12171;SDS011;6149;52.418;13.668;2022-09-12T13:55:49;1.17;;;1.00;;
12171;SDS011;6149;52.418;13.668;2022-09-12T13:58:21;1.93;;;1.37;;
12171;SDS011;6149;52.418;13.668;2022-09-12T14:00:59;1.40;;;1.20;;
12171;SDS011;6149;52.418;13.668;2022-09-12T14:03:30;2.10;;;1.60;;
12171;SDS011;6149;52.418;13.668;2022-09-12T14:06:17;3.30;;;1.80;;
12171;SDS011;6149;52.418;13.668;2022-09-12T14:08:45;2.63;;;1.57;;
12171;SDS011;6149;52.418;13.668;2022-09-12T14:11:17;1.20;;;1.10;;
12171;SDS011;6149;52.418;13.668;2022-09-12T14:13:51;1.93;;;1.30;;
12171;SDS011;6149;52.418;13.668;2022-09-12T14:16:19;1.30;;;0.97;;
12171;SDS011;6149;52.418;13.668;2022-09-12T14:18:51;1.30;;;0.90;;
12171;SDS011;6149;52.418;13.668;2022-09-12T14:21:23;1.60;;;1.20;;
12171;SDS011;6149;52.418;13.668;2022-09-12T14:23:59;1.80;;;1.10;;
12171;SDS011;6149;52.418;13.668;2022-09-12T14:26:28;1.77;;;1.00;;
12171;SDS011;6149;52.418;13.668;2022-09-12T14:29:00;1.53;;;1.10;;
12171;SDS011;6149;52.418;13.668;2022-09-12T14:31:31;1.43;;;0.90;;
12171;SDS011;6149;52.418;13.668;2022-09-12T14:34:07;1.20;;;0.93;;
12171;SDS011;6149;52.418;13.668;2022-09-12T14:36:39;1.40;;;1.00;;
12171;SDS011;6149;52.418;13.668;2022-09-12T14:39:17;1.80;;;1.50;;
12171;SDS011;6149;52.418;13.668;2022-09-12T14:41:48;3.20;;;1.50;;
12171;SDS011;6149;52.418;13.668;2022-09-12T14:44:22;1.57;;;1.20;;
12171;SDS011;6149;52.418;13.668;2022-09-12T14:46:50;1.60;;;1.50;;
12171;SDS011;6149;52.418;13.668;2022-09-12T14:49:18;1.57;;;1.47;;
12171;SDS011;6149;52.418;13.668;2022-09-12T14:51:54;1.30;;;1.10;;
12171;SDS011;6149;52.418;13.668;2022-09-12T14:54:33;1.97;;;0.90;;
12171;SDS011;6149;52.418;13.668;2022-09-12T14:57:03;1.73;;;1.10;;
12171;SDS011;6149;52.418;13.668;2022-09-12T14:59:37;1.00;;;0.90;;
12171;SDS011;6149;52.418;13.668;2022-09-12T15:02:17;1.00;;;0.90;;
12171;SDS011;6149;52.418;13.668;2022-09-12T15:07:53;2.20;;;1.10;;
12171;SDS011;6149;52.418;13.668;2022-09-12T15:10:24;1.30;;;1.07;;
12171;SDS011;6149;52.418;13.668;2022-09-12T15:13:11;1.33;;;1.03;;
12171;SDS011;6149;52.418;13.668;2022-09-12T15:15:51;1.93;;;1.13;;
12171;SDS011;6149;52.418;13.668;2022-09-12T15:18:20;1.30;;;1.20;;
12171;SDS011;6149;52.418;13.668;2022-09-12T15:20:50;1.20;;;1.10;;
12171;SDS011;6149;52.418;13.668;2022-09-12T15:23:23;1.00;;;0.83;;
12171;SDS011;6149;52.418;13.668;2022-09-12T15:25:56;1.43;;;1.07;;
12171;SDS011;6149;52.418;13.668;2022-09-12T15:28:23;1.77;;;1.00;;
12171;SDS011;6149;52.418;13.668;2022-09-12T15:30:52;1.20;;;1.10;;
12171;SDS011;6149;52.418;13.668;2022-09-12T15:33:21;1.17;;;1.07;;
12171;SDS011;6149;52.418;13.668;2022-09-12T15:35:50;1.80;;;1.10;;
12171;SDS011;6149;52.418;13.668;2022-09-12T15:38:20;2.10;;;1.10;;
12171;SDS011;6149;52.418;13.668;2022-09-12T15:40:49;1.00;;;0.90;;
12171;SDS011;6149;52.418;13.668;2022-09-12T15:43:18;1.67;;;1.00;;
12171;SDS011;6149;52.418;13.668;2022-09-12T15:45:45;1.30;;;1.20;;
12171;SDS011;6149;52.418;13.668;2022-09-12T15:48:16;2.23;;;1.20;;